Time;durP1;ratioP1;P1;durP2;ratioP2;P2;SDS_P1;SDS_P2;PMS_P1;PMS_P2;Temp;Humidity;BMP_temperature;BMP_pressure;BME280_temperature;BME280_humidity;BME280_pressure;Samples;Min_cycle;Max_cycle;Signal;HPM_P1;HPM_P2
2023/12/26 00:00:51;;;;;;;;;;;;;;;10.45;68.63;99711.37;4450341;32;35014;-74
2023/12/26 00:03:19;;;;;;;;;;;;;;;10.24;69.34;99709.59;4445141;32;33612;-75
2023/12/26 00:05:47;;;;;;;;;;;;;;;10.25;69.27;99711.37;4447312;32;34962;-74
2023/12/26 00:08:14;;;;;;;;;;;;;;;10.33;69.06;99712.63;4452603;32;33709;-75
2023/12/26 00:10:42;;;;;;;;;;;;;;;10.56;68.15;99713.63;4447814;32;33962;-74
2023/12/26 00:13:09;;;;;;;;;;;;;;;10.66;67.17;99717.50;4439388;32;33114;-74
2023/12/26 00:15:37;;;;;;;;;;;;;;;10.43;68.13;99725.16;4452973;32;34019;-75
2023/12/26 00:18:04;;;;;;;;;;;;;;;10.34;68.77;99719.59;4451147;32;34766;-75
2023/12/26 00:20:32;;;;;;;;;;;;;;;10.27;69.19;99714.03;4450115;32;34205;-75
2023/12/26 00:23:00;;;;;;;;;;;;;;;10.20;69.61;99723.25;4448115;32;32700;-74
2023/12/26 00:25:27;;;;;;;;;;;;;;;10.08;70.35;99714.91;4452208;32;34004;-74
2023/12/26 00:27:54;;;;;;;;;;;;;;;10.09;69.98;99727.03;4448347;32;34001;-75
2023/12/26 00:30:22;;;;;;;;;;;;;;;10.01;70.62;99718.94;4452476;32;33907;-76
2023/12/26 00:32:49;;;;;;;;;;;;;;;10.02;70.63;99729.34;4433377;32;32731;-75
2023/12/26 00:35:17;;;;;;;;;;;;;;;10.19;70.19;99724.03;4452084;32;33894;-74
2023/12/26 00:37:44;;;;;;;;;;;;;;;10.19;70.03;99729.22;4452446;32;33724;-74
2023/12/26 00:40:12;;;;;;;;;;;;;;;10.26;69.86;99728.69;4444625;32;34353;-75
2023/12/26 00:42:40;;;;;;;;;;;;;;;10.34;69.54;99724.75;4447933;32;33016;-74
2023/12/26 00:45:08;;;;;;;;;;;;;;;10.25;69.75;99719.13;4431774;32;34048;-74
2023/12/26 00:47:36;;;;;;;;;;;;;;;10.27;69.50;99716.63;4432621;32;33270;-74
2023/12/26 00:50:03;;;;;;;;;;;;;;;10.45;68.32;99711.37;4440625;32;34798;-75
2023/12/26 00:52:32;;;;;;;;;;;;;;;10.25;69.06;99721.72;4448478;32;33371;-75
2023/12/26 00:54:59;;;;;;;;;;;;;;;10.22;69.21;99725.06;4434189;32;34687;-75
2023/12/26 00:57:26;;;;;;;;;;;;;;;10.20;69.17;99715.47;4453457;32;34314;-75
2023/12/26 00:59:54;;;;;;;;;;;;;;;10.32;68.82;99716.03;4446924;32;33890;-73
2023/12/26 01:02:22;;;;;;;;;;;;;;;10.31;68.92;99710.78;4452618;32;33412;-75
2023/12/26 01:04:49;;;;;;;;;;;;;;;10.47;68.33;99707.16;4448704;32;33597;-74
2023/12/26 01:07:17;;;;;;;;;;;;;;;10.77;66.65;99711.06;4452438;32;34934;-74
2023/12/26 01:09:44;;;;;;;;;;;;;;;10.21;68.49;99691.34;4452124;32;33163;-75
2023/12/26 01:12:13;;;;;;;;;;;;;;;10.13;68.98;99683.22;4447994;32;33099;-75
2023/12/26 01:14:41;;;;;;;;;;;;;;;10.22;69.02;99701.78;4450142;32;34735;-75
2023/12/26 01:17:09;;;;;;;;;;;;;;;10.13;69.40;99713.41;4435958;32;33534;-75
2023/12/26 01:19:36;;;;;;;;;;;;;;;10.21;68.78;99722.41;4437326;32;34176;-75
2023/12/26 01:22:03;;;;;;;;;;;;;;;10.06;69.42;99711.34;4453474;32;33651;-75
2023/12/26 01:24:31;;;;;;;;;;;;;;;9.99;69.45;99705.91;4438906;32;34693;-74
2023/12/26 01:26:58;;;;;;;;;;;;;;;10.23;69.12;99720.78;4452756;32;34038;-74
2023/12/26 01:29:25;;;;;;;;;;;;;;;10.18;69.01;99706.75;4451227;32;34729;-75
2023/12/26 01:31:53;;;;;;;;;;;;;;;10.03;69.48;99709.53;4452597;32;33301;-75
2023/12/26 01:34:22;;;;;;;;;;;;;;;10.25;68.11;99713.94;4447507;32;34719;-74
2023/12/26 01:36:49;;;;;;;;;;;;;;;10.06;68.17;99707.06;4436672;32;33771;-74
2023/12/26 01:39:17;;;;;;;;;;;;;;;10.04;68.17;99714.78;4449257;32;34340;-75
2023/12/26 01:41:45;;;;;;;;;;;;;;;10.12;67.95;99717.72;4451364;32;33245;-74
2023/12/26 01:44:12;;;;;;;;;;;;;;;10.10;67.43;99708.09;4452541;32;34058;-74
2023/12/26 01:46:40;;;;;;;;;;;;;;;10.04;67.67;99713.88;4446746;32;34194;-74
2023/12/26 01:49:07;;;;;;;;;;;;;;;10.00;67.59;99712.84;4445560;32;34150;-75
2023/12/26 01:51:36;;;;;;;;;;;;;;;9.82;68.09;99722.38;4452827;32;33993;-75
2023/12/26 01:54:03;;;;;;;;;;;;;;;9.88;68.16;99717.47;4438851;32;34279;-75
2023/12/26 01:56:31;;;;;;;;;;;;;;;9.79;68.30;99723.12;4452192;32;34241;-74
2023/12/26 01:58:58;;;;;;;;;;;;;;;9.80;67.84;99724.00;4444580;32;33964;-75
2023/12/26 02:01:25;;;;;;;;;;;;;;;9.73;67.19;99706.41;4450156;32;33198;-74
2023/12/26 02:03:54;;;;;;;;;;;;;;;9.43;68.18;99706.75;4448069;32;34077;-75
2023/12/26 02:06:22;;;;;;;;;;;;;;;9.51;68.64;99710.56;4449218;32;34676;-74
2023/12/26 02:08:49;;;;;;;;;;;;;;;9.64;67.60;99712.94;4436243;32;33701;-75
2023/12/26 02:11:17;;;;;;;;;;;;;;;9.28;69.30;99711.19;4425331;32;33227;-74
2023/12/26 02:13:44;;;;;;;;;;;;;;;9.22;70.12;99707.47;4447218;32;33798;-75
2023/12/26 02:16:18;;;;;;;;;;;;;;;9.16;70.52;99704.59;4449153;32;33900;-75
2023/12/26 02:18:47;;;;;;;;;;;;;;;9.22;70.78;99699.72;4434818;32;33937;-75
2023/12/26 02:21:14;;;;;;;;;;;;;;;9.48;70.08;99694.91;4449026;32;34243;-75
2023/12/26 02:23:42;;;;;;;;;;;;;;;9.40;70.01;99693.66;4447091;32;34593;-75
2023/12/26 02:26:09;;;;;;;;;;;;;;;9.34;70.16;99695.97;4451920;32;33389;-74
2023/12/26 02:28:36;;;;;;;;;;;;;;;9.33;69.86;99689.91;4437622;32;35056;-75
2023/12/26 02:31:04;;;;;;;;;;;;;;;9.29;69.79;99697.44;4435381;32;33082;-73
2023/12/26 02:33:32;;;;;;;;;;;;;;;9.16;70.13;99688.22;4434419;32;34610;-74
2023/12/26 02:35:59;;;;;;;;;;;;;;;9.18;69.89;99700.41;4447855;32;35473;-74
2023/12/26 02:38:27;;;;;;;;;;;;;;;9.37;69.02;99696.13;4437731;32;34076;-75
2023/12/26 02:40:54;;;;;;;;;;;;;;;9.11;69.78;99687.09;4450305;32;32758;-75
2023/12/26 02:43:21;;;;;;;;;;;;;;;9.27;69.31;99691.31;4452662;32;34197;-75
2023/12/26 02:45:49;;;;;;;;;;;;;;;9.31;69.19;99691.53;4440258;32;33920;-73
2023/12/26 02:48:16;;;;;;;;;;;;;;;9.37;68.80;99685.78;4439704;32;34260;-75
2023/12/26 02:50:46;;;;;;;;;;;;;;;9.27;68.93;99687.00;4453227;32;33137;-74
2023/12/26 02:53:13;;;;;;;;;;;;;;;9.39;68.56;99686.75;4452689;32;34130;-74
2023/12/26 02:55:40;;;;;;;;;;;;;;;9.39;68.94;99684.16;4434568;32;32493;-75
2023/12/26 02:58:08;;;;;;;;;;;;;;;9.51;68.57;99701.94;4436257;32;32524;-74
2023/12/26 03:00:35;;;;;;;;;;;;;;;9.45;67.47;99695.66;4451377;32;33256;-74
2023/12/26 03:03:03;;;;;;;;;;;;;;;8.96;69.42;99697.56;4452136;32;33938;-73
2023/12/26 03:05:30;;;;;;;;;;;;;;;8.99;70.10;99698.59;4447878;32;34194;-75
2023/12/26 03:07:59;;;;;;;;;;;;;;;9.31;69.72;99693.22;4428525;32;793299;-74
2023/12/26 03:10:26;;;;;;;;;;;;;;;9.25;69.35;99681.78;4448451;32;33105;-75
2023/12/26 03:12:54;;;;;;;;;;;;;;;9.01;69.92;99696.97;4451346;32;33977;-75
2023/12/26 03:15:21;;;;;;;;;;;;;;;9.17;69.50;99690.84;4450765;32;33960;-75
2023/12/26 03:17:48;;;;;;;;;;;;;;;8.97;70.20;99684.72;4439439;32;34987;-75
2023/12/26 03:20:16;;;;;;;;;;;;;;;8.99;70.10;99679.63;4452423;32;33387;-74
2023/12/26 03:22:43;;;;;;;;;;;;;;;8.98;70.28;99672.69;4439859;32;34100;-73
2023/12/26 03:25:11;;;;;;;;;;;;;;;9.18;70.01;99674.56;4429200;32;34165;-74
2023/12/26 03:27:39;;;;;;;;;;;;;;;9.23;69.76;99673.09;4449506;32;34215;-75
2023/12/26 03:30:07;;;;;;;;;;;;;;;9.35;69.16;99669.28;4447924;32;33151;-73
2023/12/26 03:32:35;;;;;;;;;;;;;;;9.25;69.56;99670.53;4447717;32;34206;-74
2023/12/26 03:35:03;;;;;;;;;;;;;;;9.02;70.31;99666.84;4435672;32;32265;-75
2023/12/26 03:37:30;;;;;;;;;;;;;;;9.18;69.91;99664.22;4446582;32;34082;-75
2023/12/26 03:39:57;;;;;;;;;;;;;;;9.42;68.98;99658.44;4447641;32;33469;-74
2023/12/26 03:42:24;;;;;;;;;;;;;;;9.22;69.26;99655.78;4448067;32;34186;-75
2023/12/26 03:44:52;;;;;;;;;;;;;;;9.46;68.16;99644.81;4450993;32;34129;-74
2023/12/26 03:47:19;;;;;;;;;;;;;;;9.29;68.38;99646.66;4445673;32;33657;-74
2023/12/26 03:49:47;;;;;;;;;;;;;;;9.24;68.33;99642.94;4445843;32;33520;-74
2023/12/26 03:52:14;;;;;;;;;;;;;;;9.16;68.70;99645.16;4445294;32;33990;-73
2023/12/26 03:54:41;;;;;;;;;;;;;;;9.16;68.98;99639.12;4449481;32;34193;-74
2023/12/26 03:57:09;;;;;;;;;;;;;;;8.90;70.17;99632.69;4449167;32;33773;-74
2023/12/26 03:59:36;;;;;;;;;;;;;;;8.80;70.61;99632.22;4445374;32;33236;-74
2023/12/26 04:02:04;;;;;;;;;;;;;;;8.89;70.94;99626.63;4446149;32;34041;-75
2023/12/26 04:04:32;;;;;;;;;;;;;;;9.00;70.93;99624.56;4451577;32;34771;-75
2023/12/26 04:06:59;;;;;;;;;;;;;;;9.14;70.42;99631.28;4441063;32;34200;-75
2023/12/26 04:09:26;;;;;;;;;;;;;;;8.94;71.17;99635.47;4448282;32;33238;-75
2023/12/26 04:11:55;;;;;;;;;;;;;;;9.18;70.24;99642.66;4453252;32;33860;-74
2023/12/26 04:14:22;;;;;;;;;;;;;;;9.08;70.27;99637.84;4439636;32;34198;-75
2023/12/26 04:16:50;;;;;;;;;;;;;;;9.18;70.87;99643.53;4447734;32;33602;-75
2023/12/26 04:19:17;;;;;;;;;;;;;;;9.16;71.24;99618.44;4438825;32;31682;-74
2023/12/26 04:21:45;;;;;;;;;;;;;;;9.08;71.64;99628.41;4445919;32;33835;-75
2023/12/26 04:24:12;;;;;;;;;;;;;;;8.93;70.70;99631.12;4453603;32;33856;-74
2023/12/26 04:26:41;;;;;;;;;;;;;;;8.81;71.02;99636.59;4446827;32;34017;-74
2023/12/26 04:29:08;;;;;;;;;;;;;;;8.69;71.58;99641.13;4439256;32;34004;-75
2023/12/26 04:31:35;;;;;;;;;;;;;;;8.64;71.48;99632.31;4453102;32;34759;-74
2023/12/26 04:34:02;;;;;;;;;;;;;;;8.68;70.87;99651.41;4453135;32;33938;-75
2023/12/26 04:36:34;;;;;;;;;;;;;;;8.79;69.92;99658.00;4448760;32;33604;-75
2023/12/26 04:39:04;;;;;;;;;;;;;;;8.89;68.40;99646.44;4443105;32;34165;-75
2023/12/26 04:41:32;;;;;;;;;;;;;;;8.53;69.55;99654.09;4446545;32;34838;-74
2023/12/26 04:43:59;;;;;;;;;;;;;;;8.49;70.85;99639.28;4453124;32;33879;-75
2023/12/26 04:46:27;;;;;;;;;;;;;;;8.49;71.05;99644.44;4450517;32;34016;-75
2023/12/26 04:48:54;;;;;;;;;;;;;;;8.70;71.34;99663.59;4445039;32;33297;-75
2023/12/26 04:51:22;;;;;;;;;;;;;;;8.73;69.28;99653.41;4445436;32;34934;-75
2023/12/26 04:53:50;;;;;;;;;;;;;;;8.34;69.68;99663.44;4445869;32;33462;-75
2023/12/26 04:56:18;;;;;;;;;;;;;;;8.42;69.83;99667.38;4449867;32;33799;-74
2023/12/26 04:58:49;;;;;;;;;;;;;;;8.60;70.74;99666.53;4452140;32;33452;-74
2023/12/26 05:01:17;;;;;;;;;;;;;;;8.37;71.56;99679.09;4449437;32;33905;-74
2023/12/26 05:03:45;;;;;;;;;;;;;;;8.58;71.74;99668.16;4437264;32;34252;-75
2023/12/26 05:06:12;;;;;;;;;;;;;;;8.70;69.82;99668.75;4447859;32;33983;-74
2023/12/26 05:08:40;;;;;;;;;;;;;;;8.67;69.37;99673.75;4453103;32;33403;-74
2023/12/26 05:11:07;;;;;;;;;;;;;;;8.48;70.55;99673.63;4453227;32;33855;-74
2023/12/26 05:13:36;;;;;;;;;;;;;;;8.53;71.22;99664.44;4452321;32;35049;-75
2023/12/26 05:16:04;;;;;;;;;;;;;;;8.42;71.07;99688.00;4453257;32;34601;-75
2023/12/26 05:18:31;;;;;;;;;;;;;;;8.28;71.10;99682.09;4452923;32;34147;-75
2023/12/26 05:20:59;;;;;;;;;;;;;;;8.41;71.08;99675.91;4425378;32;31616;-75
2023/12/26 05:23:27;;;;;;;;;;;;;;;8.44;70.86;99673.50;4453066;32;35394;-74
2023/12/26 05:25:57;;;;;;;;;;;;;;;8.51;70.22;99666.06;4447399;32;34233;-75
2023/12/26 05:28:38;;;;;;;;;;;;;;;8.38;71.05;99664.50;4452616;32;34214;-74
2023/12/26 05:31:05;;;;;;;;;;;;;;;8.38;71.25;99665.41;4451255;32;34127;-74
2023/12/26 05:33:32;;;;;;;;;;;;;;;8.40;71.56;99666.37;4452658;32;33732;-73
2023/12/26 05:36:01;;;;;;;;;;;;;;;8.56;71.33;99659.44;4448130;32;33668;-74
2023/12/26 05:38:28;;;;;;;;;;;;;;;8.49;70.37;99668.56;4450173;32;33421;-74
2023/12/26 05:40:56;;;;;;;;;;;;;;;8.30;70.26;99661.53;4452561;32;34238;-75
2023/12/26 05:43:24;;;;;;;;;;;;;;;8.30;69.44;99660.66;4438746;32;34073;-74
2023/12/26 05:45:52;;;;;;;;;;;;;;;8.39;68.63;99669.75;4450524;32;33869;-75
2023/12/26 05:48:19;;;;;;;;;;;;;;;8.20;68.72;99660.16;4438548;32;32971;-74
2023/12/26 05:50:47;;;;;;;;;;;;;;;8.25;68.23;99660.41;4451649;32;34047;-74
2023/12/26 05:53:15;;;;;;;;;;;;;;;8.16;68.14;99665.09;4452159;32;34892;-76
2023/12/26 05:55:42;;;;;;;;;;;;;;;8.23;67.63;99660.34;4438837;32;34334;-74
2023/12/26 05:58:10;;;;;;;;;;;;;;;8.21;66.74;99651.63;4438865;32;33261;-75
2023/12/26 06:00:37;;;;;;;;;;;;;;;7.82;67.13;99642.69;4452170;32;34766;-74
2023/12/26 06:03:05;;;;;;;;;;;;;;;7.65;67.99;99642.69;4441206;32;34776;-74
2023/12/26 06:05:33;;;;;;;;;;;;;;;7.51;68.34;99648.75;4451906;32;34673;-73
2023/12/26 06:08:01;;;;;;;;;;;;;;;7.53;67.75;99642.00;4425530;32;33895;-74
2023/12/26 06:10:28;;;;;;;;;;;;;;;7.51;68.36;99659.06;4434185;32;34027;-75
2023/12/26 06:12:56;;;;;;;;;;;;;;;7.53;68.94;99662.62;4436246;32;34906;-75
2023/12/26 06:15:24;;;;;;;;;;;;;;;7.54;69.42;99669.56;4424226;32;32286;-74
2023/12/26 06:17:52;;;;;;;;;;;;;;;7.51;69.61;99674.53;4425236;32;34263;-75
2023/12/26 06:20:22;;;;;;;;;;;;;;;7.62;69.59;99663.13;4434066;32;33439;-74
2023/12/26 06:22:50;;;;;;;;;;;;;;;7.77;69.15;99664.78;4438630;32;34040;-74
2023/12/26 06:25:17;;;;;;;;;;;;;;;7.70;68.81;99666.13;4422567;32;34220;-74
2023/12/26 06:27:44;;;;;;;;;;;;;;;7.77;68.61;99667.34;4439818;32;34042;-75
2023/12/26 06:30:12;;;;;;;;;;;;;;;7.41;69.29;99664.53;4435259;32;34575;-75
2023/12/26 06:32:40;;;;;;;;;;;;;;;7.18;70.92;99679.59;4436487;32;34126;-74
2023/12/26 06:35:08;;;;;;;;;;;;;;;7.17;71.57;99666.66;4429824;32;35082;-74
2023/12/26 06:37:35;;;;;;;;;;;;;;;7.39;71.07;99668.72;4438095;32;33879;-74
2023/12/26 06:40:04;;;;;;;;;;;;;;;7.58;70.33;99676.66;4425292;32;33949;-74
2023/12/26 06:42:31;;;;;;;;;;;;;;;7.27;70.92;99664.66;4437344;32;34714;-74
2023/12/26 06:44:58;;;;;;;;;;;;;;;7.40;70.15;99668.81;4421513;32;33039;-73
2023/12/26 06:47:26;;;;;;;;;;;;;;;7.33;70.03;99664.13;4433618;32;34054;-75
2023/12/26 06:49:53;;;;;;;;;;;;;;;7.46;69.70;99665.69;4421579;32;34630;-74
2023/12/26 06:52:20;;;;;;;;;;;;;;;7.35;69.98;99677.09;4439305;32;33652;-75
2023/12/26 06:54:48;;;;;;;;;;;;;;;7.38;69.84;99677.25;4439302;32;34053;-74
2023/12/26 06:57:15;;;;;;;;;;;;;;;7.33;69.96;99681.28;4424094;32;33137;-74
2023/12/26 06:59:48;;;;;;;;;;;;;;;7.47;69.42;99682.91;4443627;32;34034;-74
2023/12/26 07:02:16;;;;;;;;;;;;;;;7.45;69.25;99684.50;4439088;32;34945;-74
2023/12/26 07:04:44;;;;;;;;;;;;;;;7.62;67.86;99698.34;4437038;32;33891;-74
2023/12/26 07:07:12;;;;;;;;;;;;;;;7.51;68.06;99705.47;4439630;32;33038;-73
2023/12/26 07:09:39;;;;;;;;;;;;;;;7.43;67.38;99711.87;4425347;32;32427;-74
2023/12/26 07:12:06;;;;;;;;;;;;;;;7.26;68.25;99717.00;4453031;32;34309;-74
2023/12/26 07:14:34;;;;;;;;;;;;;;;7.35;67.87;99708.00;4453783;32;34802;-74
2023/12/26 07:17:01;;;;;;;;;;;;;;;7.35;67.67;99718.31;4454615;32;33317;-74
2023/12/26 07:19:29;;;;;;;;;;;;;;;7.35;67.39;99726.03;4450542;32;34611;-74
2023/12/26 07:21:57;;;;;;;;;;;;;;;7.34;67.44;99721.69;4448297;32;34209;-74
2023/12/26 07:24:25;;;;;;;;;;;;;;;7.17;67.78;99728.47;4435873;32;34291;-74
2023/12/26 07:26:52;;;;;;;;;;;;;;;7.06;68.87;99727.84;4452073;32;33616;-74
2023/12/26 07:29:20;;;;;;;;;;;;;;;7.13;68.91;99732.56;4445996;32;34568;-74
2023/12/26 07:31:48;;;;;;;;;;;;;;;7.18;69.08;99733.69;4445332;32;34537;-74
2023/12/26 07:34:15;;;;;;;;;;;;;;;7.40;68.80;99740.97;4449525;32;34868;-75
2023/12/26 07:36:42;;;;;;;;;;;;;;;7.35;69.29;99738.94;4452554;32;33422;-75
2023/12/26 07:39:09;;;;;;;;;;;;;;;7.33;69.74;99737.97;4451303;32;34135;-75
2023/12/26 07:41:37;;;;;;;;;;;;;;;7.35;70.16;99736.34;4453787;32;34161;-74
2023/12/26 07:44:04;;;;;;;;;;;;;;;7.64;69.57;99738.84;4453428;32;33479;-75
2023/12/26 07:46:32;;;;;;;;;;;;;;;7.72;69.60;99735.81;4451233;32;33457;-74
2023/12/26 07:48:59;;;;;;;;;;;;;;;7.84;69.79;99737.38;4451169;32;34435;-75
2023/12/26 07:51:27;;;;;;;;;;;;;;;8.17;69.46;99727.09;4446648;32;33540;-75
2023/12/26 07:53:54;;;;;;;;;;;;;;;7.84;70.70;99731.31;4453248;32;33652;-75
2023/12/26 07:56:22;;;;;;;;;;;;;;;7.61;72.25;99749.00;4456738;32;33161;-74
2023/12/26 07:58:51;;;;;;;;;;;;;;;7.75;72.09;99746.31;4452826;32;34771;-74
2023/12/26 08:01:18;;;;;;;;;;;;;;;7.78;71.95;99736.16;4450033;32;34267;-73
2023/12/26 08:03:46;;;;;;;;;;;;;;;7.95;71.19;99734.50;4454391;32;33772;-74
2023/12/26 08:06:13;;;;;;;;;;;;;;;7.67;72.01;99728.72;4454192;32;34044;-74
2023/12/26 08:08:40;;;;;;;;;;;;;;;7.91;71.53;99738.59;4453090;32;34242;-74
2023/12/26 08:11:08;;;;;;;;;;;;;;;8.10;70.70;99739.59;4454527;32;34754;-74
2023/12/26 08:13:35;;;;;;;;;;;;;;;8.10;70.05;99739.59;4455694;32;34825;-73
2023/12/26 08:16:04;;;;;;;;;;;;;;;7.85;71.56;99740.84;4452196;32;33539;-75
2023/12/26 08:18:32;;;;;;;;;;;;;;;7.74;71.81;99744.53;4453423;32;33508;-75
2023/12/26 08:21:00;;;;;;;;;;;;;;;7.84;72.22;99746.78;4451533;32;34290;-74
2023/12/26 08:23:28;;;;;;;;;;;;;;;7.85;72.45;99748.59;4452563;32;34273;-75
2023/12/26 08:25:55;;;;;;;;;;;;;;;8.13;72.34;99744.91;4453888;32;33326;-74
2023/12/26 08:28:22;;;;;;;;;;;;;;;8.84;93.28;99755.53;4453445;32;34899;-74
2023/12/26 08:30:52;;;;;;;;;;;;;;;8.74;88.91;99757.59;4438690;32;34885;-74
2023/12/26 08:33:20;;;;;;;;;;;;;;;8.61;87.90;99756.06;4449941;32;34141;-74
2023/12/26 08:35:48;;;;;;;;;;;;;;;8.55;87.98;99745.44;4448865;32;33172;-75
2023/12/26 08:38:15;;;;;;;;;;;;;;;8.48;85.54;99743.31;4452465;32;33734;-73
2023/12/26 08:40:43;;;;;;;;;;;;;;;8.68;84.40;99736.63;4452528;32;34191;-75
2023/12/26 08:43:10;;;;;;;;;;;;;;;8.81;83.51;99724.41;4453631;32;34390;-74
2023/12/26 08:45:37;;;;;;;;;;;;;;;8.83;82.78;99729.66;4452130;32;33346;-74
2023/12/26 08:48:05;;;;;;;;;;;;;;;9.33;80.44;99726.09;4456491;32;33999;-74
2023/12/26 08:50:33;;;;;;;;;;;;;;;9.30;79.62;99722.47;4452154;32;33848;-75
2023/12/26 08:53:00;;;;;;;;;;;;;;;9.07;80.96;99722.22;4432544;32;34056;-74
2023/12/26 08:55:28;;;;;;;;;;;;;;;9.09;80.21;99725.78;4452439;32;33441;-73
2023/12/26 08:57:55;;;;;;;;;;;;;;;9.20;81.06;99721.16;4436876;32;32345;-75
2023/12/26 09:00:23;;;;;;;;;;;;;;;9.21;81.11;99731.56;4452694;32;34183;-75
2023/12/26 09:02:50;;;;;;;;;;;;;;;9.59;79.10;99727.34;4452400;32;34450;-75
2023/12/26 09:05:32;;;;;;;;;;;;;;;9.44;80.70;99735.28;4447748;32;33468;-74
2023/12/26 09:07:59;;;;;;;;;;;;;;;9.68;78.30;99733.75;4450065;32;33567;-75
2023/12/26 09:10:26;;;;;;;;;;;;;;;9.70;78.79;99743.38;4426251;32;34022;-75
2023/12/26 09:12:53;;;;;;;;;;;;;;;10.18;77.35;99743.00;4453363;32;34078;-73
2023/12/26 09:15:23;;;;;;;;;;;;;;;10.66;74.05;99733.03;4452660;32;33806;-74
2023/12/26 09:17:50;;;;;;;;;;;;;;;10.48;75.35;99732.25;4452325;32;34964;-74
2023/12/26 09:20:17;;;;;;;;;;;;;;;10.69;74.52;99735.78;4456057;32;34251;-73
2023/12/26 09:22:45;;;;;;;;;;;;;;;10.70;75.10;99745.34;4449154;32;34896;-74
2023/12/26 09:25:14;;;;;;;;;;;;;;;11.11;76.21;99741.00;4446510;32;34044;-74
2023/12/26 09:27:42;;;;;;;;;;;;;;;11.57;76.13;99734.19;4444853;32;33855;-73
2023/12/26 09:30:09;;;;;;;;;;;;;;;11.65;73.43;99747.47;4452742;32;34428;-73
2023/12/26 09:32:37;;;;;;;;;;;;;;;11.77;74.11;99745.38;4452504;32;34345;-74
2023/12/26 09:35:05;;;;;;;;;;;;;;;11.69;72.36;99746.78;4452136;32;33197;-74
2023/12/26 09:37:35;;;;;;;;;;;;;;;11.55;72.30;99759.19;4438943;32;34176;-73
2023/12/26 09:40:02;;;;;;;;;;;;;;;11.68;72.34;99763.16;4448095;32;33863;-74
2023/12/26 09:42:30;;;;;;;;;;;;;;;12.17;68.25;99763.38;4444546;32;33885;-73
2023/12/26 09:44:58;;;;;;;;;;;;;;;12.03;67.68;99767.16;4445166;32;33199;-72
2023/12/26 09:47:25;;;;;;;;;;;;;;;11.94;68.86;99767.72;4450979;32;34533;-73
2023/12/26 09:49:54;;;;;;;;;;;;;;;11.86;68.16;99763.91;4453077;32;34475;-74
2023/12/26 09:52:22;;;;;;;;;;;;;;;11.58;69.91;99769.69;4437159;32;34722;-73
2023/12/26 09:54:49;;;;;;;;;;;;;;;11.79;68.86;99762.75;4449893;32;32976;-75
2023/12/26 09:57:16;;;;;;;;;;;;;;;11.61;69.31;99762.94;4439688;32;33434;-74
2023/12/26 09:59:45;;;;;;;;;;;;;;;12.00;65.64;99765.34;4433512;32;35162;-74
2023/12/26 10:02:13;;;;;;;;;;;;;;;11.64;72.79;99761.28;4427977;32;34182;-76
2023/12/26 10:04:41;;;;;;;;;;;;;;;11.47;71.16;99769.25;4456316;32;33690;-74
2023/12/26 10:07:13;;;;;;;;;;;;;;;11.46;69.80;99772.69;4454392;32;34083;-74
2023/12/26 10:09:41;;;;;;;;;;;;;;;11.25;70.04;99777.00;4449931;32;34139;-73
2023/12/26 10:12:08;;;;;;;;;;;;;;;11.54;67.90;99771.28;4434655;32;33806;-76
2023/12/26 10:14:36;;;;;;;;;;;;;;;11.19;70.02;99764.66;4437058;32;33312;-73
2023/12/26 10:17:03;;;;;;;;;;;;;;;11.28;70.01;99761.53;4430285;32;33963;-74
2023/12/26 10:19:32;;;;;;;;;;;;;;;11.16;70.49;99757.66;4446637;32;34270;-73
2023/12/26 10:21:59;;;;;;;;;;;;;;;11.39;69.61;99766.34;4440928;32;34703;-74
2023/12/26 10:24:27;;;;;;;;;;;;;;;11.42;67.82;99755.22;4432395;32;32143;-74
2023/12/26 10:26:54;;;;;;;;;;;;;;;11.10;71.16;99747.00;4447573;32;34313;-75
2023/12/26 10:29:22;;;;;;;;;;;;;;;10.92;72.18;99741.06;4452055;32;34205;-74
2023/12/26 10:31:50;;;;;;;;;;;;;;;11.33;69.83;99747.06;4437311;32;33086;-75
2023/12/26 10:34:19;;;;;;;;;;;;;;;11.26;70.61;99742.44;4450867;32;33102;-75
2023/12/26 10:36:48;;;;;;;;;;;;;;;11.00;72.27;99726.72;4450700;32;34703;-75
2023/12/26 10:39:16;;;;;;;;;;;;;;;10.81;74.86;99738.88;4448423;32;34963;-74
2023/12/26 10:41:44;;;;;;;;;;;;;;;10.63;75.19;99731.22;4449315;32;34390;-74
2023/12/26 10:44:13;;;;;;;;;;;;;;;11.00;76.64;99734.47;4432734;32;33667;-75
2023/12/26 10:46:41;;;;;;;;;;;;;;;11.32;72.46;99732.31;4428551;32;34866;-74
2023/12/26 10:49:12;;;;;;;;;;;;;;;11.14;73.30;99733.34;4449046;32;34404;-74
2023/12/26 10:51:40;;;;;;;;;;;;;;;11.26;73.15;99739.84;4428247;32;33879;-74
2023/12/26 10:54:13;;;;;;;;;;;;;;;11.06;73.01;99726.97;4432966;32;33183;-74
2023/12/26 10:56:40;;;;;;;;;;;;;;;10.98;74.22;99730.94;4430344;32;33559;-74
2023/12/26 10:59:07;;;;;;;;;;;;;;;10.97;74.23;99718.78;4450379;32;34241;-74
2023/12/26 11:01:35;;;;;;;;;;;;;;;11.08;73.99;99727.91;4452355;32;34662;-74
2023/12/26 11:04:02;;;;;;;;;;;;;;;10.84;75.00;99727.78;4451211;32;33143;-74
2023/12/26 11:06:30;;;;;;;;;;;;;;;11.32;72.90;99711.56;4429999;32;34105;-74
2023/12/26 11:08:57;;;;;;;;;;;;;;;11.16;73.62;99726.53;4443665;32;34255;-74
2023/12/26 11:11:25;;;;;;;;;;;;;;;11.60;71.11;99718.75;4437778;32;34189;-75
2023/12/26 11:13:52;;;;;;;;;;;;;;;11.64;71.33;99730.16;4436225;32;32851;-74
2023/12/26 11:16:19;;;;;;;;;;;;;;;11.56;71.30;99727.25;4433906;32;33899;-74
2023/12/26 11:18:47;;;;;;;;;;;;;;;11.70;70.57;99732.97;4435123;32;34170;-75
2023/12/26 11:21:14;;;;;;;;;;;;;;;11.53;71.56;99722.84;4423802;32;34329;-75
2023/12/26 11:23:42;;;;;;;;;;;;;;;11.79;70.66;99715.16;4416132;32;33518;-74
2023/12/26 11:26:09;;;;;;;;;;;;;;;11.41;72.30;99696.37;4438614;32;33791;-73
2023/12/26 11:28:37;;;;;;;;;;;;;;;11.68;71.15;99706.09;4441597;32;33930;-75
2023/12/26 11:31:04;;;;;;;;;;;;;;;11.45;71.81;99716.44;4423564;32;33728;-74
2023/12/26 11:33:31;;;;;;;;;;;;;;;11.34;72.55;99741.97;4438230;32;33408;-73
2023/12/26 11:35:59;;;;;;;;;;;;;;;11.69;71.30;99726.91;4424867;32;33631;-75
2023/12/26 11:38:26;;;;;;;;;;;;;;;11.75;71.14;99697.72;4421257;32;33940;-76
2023/12/26 11:40:53;;;;;;;;;;;;;;;12.17;68.63;99707.97;4424617;32;34242;-75
2023/12/26 11:43:21;;;;;;;;;;;;;;;11.96;69.72;99703.75;4412293;32;33490;-75
2023/12/26 11:45:48;;;;;;;;;;;;;;;11.83;70.43;99691.09;4414204;32;33706;-74
2023/12/26 11:48:16;;;;;;;;;;;;;;;11.76;70.68;99699.47;4424531;32;33950;-75
2023/12/26 11:50:43;;;;;;;;;;;;;;;11.78;70.19;99703.00;4436070;32;34092;-75
2023/12/26 11:53:11;;;;;;;;;;;;;;;11.89;70.41;99709.53;4422086;32;33584;-74
2023/12/26 11:55:38;;;;;;;;;;;;;;;11.66;70.86;99718.13;4423571;32;34735;-73
2023/12/26 11:58:06;;;;;;;;;;;;;;;11.79;71.13;99710.84;4414821;32;34004;-74
2023/12/26 12:00:33;;;;;;;;;;;;;;;11.55;71.91;99709.91;4435946;32;34099;-74
2023/12/26 12:03:01;;;;;;;;;;;;;;;12.11;69.30;99707.72;4435158;32;33103;-74
2023/12/26 12:05:28;;;;;;;;;;;;;;;12.00;70.07;99709.94;4438663;32;33816;-73
2023/12/26 12:08:11;;;;;;;;;;;;;;;12.39;68.00;99709.63;4448015;32;34887;-74
2023/12/26 12:10:58;;;;;;;;;;;;;;;11.84;70.41;99715.34;4449147;32;33537;-75
2023/12/26 12:13:26;;;;;;;;;;;;;;;12.19;68.80;99727.97;4439128;32;32952;-74
2023/12/26 12:15:53;;;;;;;;;;;;;;;12.45;67.50;99729.75;4435943;32;34805;-74
2023/12/26 12:18:21;;;;;;;;;;;;;;;12.47;67.05;99725.50;4436783;32;34313;-75
2023/12/26 12:20:48;;;;;;;;;;;;;;;12.14;68.30;99723.44;4434958;32;34882;-74
2023/12/26 12:23:16;;;;;;;;;;;;;;;12.52;67.51;99722.25;4450352;32;33259;-74
2023/12/26 12:25:44;;;;;;;;;;;;;;;12.41;68.05;99731.34;4431408;32;32617;-76
2023/12/26 12:28:11;;;;;;;;;;;;;;;12.29;68.43;99729.19;4432579;32;32627;-73
2023/12/26 12:30:38;;;;;;;;;;;;;;;12.25;75.20;99740.31;4446700;32;34539;-74
2023/12/26 12:33:19;;;;;;;;;;;;;;;12.56;70.33;99736.22;4446163;32;32993;-75
2023/12/26 12:35:47;;;;;;;;;;;;;;;11.96;70.64;99729.72;4444658;32;33334;-74
2023/12/26 12:38:15;;;;;;;;;;;;;;;11.98;70.24;99722.00;4452870;32;34719;-73
2023/12/26 12:40:43;;;;;;;;;;;;;;;12.61;67.63;99719.06;4431572;32;32880;-75
2023/12/26 12:43:10;;;;;;;;;;;;;;;12.91;66.25;99720.97;4419093;32;33332;-75
2023/12/26 12:45:38;;;;;;;;;;;;;;;12.61;67.18;99721.66;4450484;32;33463;-75
2023/12/26 12:48:05;;;;;;;;;;;;;;;12.81;67.11;99724.09;4434251;32;34010;-76
2023/12/26 12:50:33;;;;;;;;;;;;;;;12.65;67.79;99720.97;4452886;32;33749;-75
2023/12/26 12:53:03;;;;;;;;;;;;;;;12.59;68.17;99723.31;4436023;32;33360;-75
2023/12/26 12:55:30;;;;;;;;;;;;;;;13.43;65.14;99717.53;4430911;32;34182;-75